Flair B738 at Kitchener on Nov 25th 2022, overran runway on landing

Last Update: December 1, 2022 / 16:13:02 GMT/Zulu time

Bookmark this article
Incident Facts

Date of incident
Nov 25, 2022

Classification
Incident

Flight number
F8-501

Aircraft Registration
C-FFLC

Aircraft Type
Boeing 737-800

ICAO Type Designator
B738

Airport ICAO Code
CYKF

A Flair Airlines Boeing 737-800, registration C-FFLC performing flight F8-501 (dep Nov 24th) from Vancouver,BC to Kitchener,ON (Canada) with 134 passengers and 6 crew, landed on Kitchener's runway 26 at 06:25L (11:25Z) but overran the end of the runway and came to a stop with all gear on soft ground about 140 meters/470 feet past the runway end. There were no injuries, the aircraft sustained minor if any damage. The passengers disembarked via stairs and were bussed to the terminal.

Canada's TSB have dispatched investigators on site.

On Dec 1st 2022 the TSB reported: "Following touchdown on runway 26 the flight crew encountered some directional control issues, and the aircraft did not decelerate as expected. The aircraft overran the runway, coming to rest approximately 500 feet from the end of runway. There were no injuries, no observed damage to the landing gear, and some minor FOD damage observed on the LH engine. The crew and passengers stayed on the aircraft until airstairs were made available."



Related NOTAMs:
J7848/22 NOTAMN
Q) CZYZ/QMRLC/IV/NBO/A/000/999/4328N08023W005
A) CYKF B) 2211251136 C) 2211251300 EST
E) RWY 08/26 CLSD.

J7850/22 NOTAMR J7848/22
Q) CZYZ/QMRLC/IV/NBO/A/000/999/4328N08023W005
A) CYKF B) 2211251159 C) 2211260500 EST
E) RWY 08/26 CLSD.

J7851/22 NOTAMR J7849/22
Q) CZYZ/QMXLC/IV/M/A/000/999/4328N08023W005
A) CYKF B) 2211251237 C) 2211260500 EST
E) TWY C CLSD SOUTH OF RWY 08/26

A7028/22 NOTAMR A6960/22
Q) CZYZ/QFAXX/IV/NBO/A/000/999/4328N08023W005
A) CYKF B) 2211250511 C) 2211251311
E) RSC 08 5/5/5 100 PCT WET, 100 PCT WET, 100 PCT WET. VALID NOV 25 0502 - NOV 25 1302.
RSC 26 5/5/5 100 PCT WET, 100 PCT WET, 100 PCT WET. VALID NOV 25 0502 - NOV 25 1302.
RSC 14/32 100 PCT WET. VALID NOV 25 0504 - NOV 25 1304.
ADDN NON-GRF/TALPA INFO:
CRFI 08 NR/NR/NR.
CRFI 26 NR/NR/NR.
CRFI 14/32 NR.
RMK: TWY ALL TWYS: WET.
RMK: APN ALL APRONS: WET.

Metars:
CYKF 251400Z AUTO 29016KT 9SM FEW019 OVC030 04/01 A2991 RMK SLP137=
CYKF 251353Z AUTO 30014G23KT 9SM FEW017 SCT021 OVC032 04/01 A2991 RMK SLP138=
CYKF 251319Z AUTO 30019G27KT 9SM BKN012 OVC017 04/02 A2990 RMK SLP136=
CYKF 251303Z AUTO 29022G29KT 6SM BR BKN008 OVC013 04/02 A2990 RMK SLP135=
CYKF 251300Z AUTO 30015G27KT 5SM BR OVC008 04/02 A2989 RMK SLP132=
CYKF 251251Z AUTO 29017G23KT 5SM -RA BR OVC008 04/03 A2988 RMK SLP131=
CYKF 251247Z AUTO 29014G25KT 6SM -RA BR OVC008 04/03 A2988 RMK PRESRR SLP131=
CYKF 251239Z AUTO 30018G25KT 5SM -RA BR OVC006 04/03 A2987 RMK SLP126=
CYKF 251214Z AUTO 30019G25KT 5SM BR OVC008 04/03 A2986 RMK SLP122=
CYKF 251200Z AUTO 30017G23KT 9SM OVC008 04/03 A2985 RMK SLP118=
CYKF 251152Z AUTO 30016G24KT 6SM BR OVC008 04/03 A2985 RMK PRESRR SLP118=
CYKF 251148Z AUTO 30016G26KT 3SM BR OVC008 04/03 A2985 RMK SLP117=
CYKF 251141Z AUTO 30017G26KT 2 1/2SM BR OVC008 05/03 A2984 RMK SLP114=
CYKF 251138Z AUTO 30018G25KT 3SM BR OVC008 05/04 A2984 RMK SLP114=
CYKF 251124Z AUTO 30016G25KT 3SM -RA BR OVC006 05/04 A2983 RMK SLP111=
CYKF 251102Z AUTO 29016G23KT 2SM -RA BR OVC006 05/04 A2982 RMK SLP109=
CYKF 251100Z AUTO 28017G23KT 2SM BR OVC006 05/04 A2982 RMK SLP109=
CYKF 251052Z AUTO 28017G24KT 2 1/2SM BR OVC006 05/04 A2982 RMK SLP108=
CYKF 251000Z AUTO 27017G25KT 4SM BR OVC006 06/05 A2981 RMK SLP103=
Aircraft Registration Data
Registration mark
C-FFLC
Country of Registration
Canada
Date of Registration
G chemjlAdhhcAp Subscribe to unlock
Certification Basis
Ajjgne lAdnbhklijbi cidijpkekcqdcqcejcjAbAqeck Subscribe to unlock
TCDS Ident. No.
Manufacturer
Boeing
Aircraft Model / Type
737-86J
ICAO Aircraft Type
B738
Year of Manufacture
Serial Number
Aircraft Address / Mode S Code (HEX)
Maximum Take off Mass (MTOM) [kg]
Engine Count
Engine Type
Main Owner
QjhdnpfebjlpikjpmggbhinmqhcdmbgpgAjfmcecndgpAniiilpejqpAkmpchdcjpfjfimcfiqhlbAfqidlffnleeAcfqnphdbAfhkbcbgjcjij Subscribe to unlock

Aircraft registration data reproduced and distributed with the permission of the Government of Canada.

Incident Facts

Date of incident
Nov 25, 2022

Classification
Incident

Flight number
F8-501

Aircraft Registration
C-FFLC

Aircraft Type
Boeing 737-800

ICAO Type Designator
B738

Airport ICAO Code
CYKF

This article is published under license from Avherald.com. © of text by Avherald.com.
Article source

You can read 2 more free articles without a subscription.

Subscribe now and continue reading without any limits!

Are you a subscriber? Login
Subscribe

Read unlimited articles and receive our daily update briefing. Gain better insights into what is happening in commercial aviation safety.

Send tip

Support AeroInside by sending a small tip amount.

Related articles

Newest articles

Subscribe today

Are you researching aviation incidents? Get access to AeroInside Insights, unlimited read access and receive the daily newsletter.

Pick your plan and subscribe

Partner

Blockaviation logo

A new way to document and demonstrate airworthiness compliance and aircraft value. Find out more.

Virtual Speech logo

ELITE Simulation Solutions is a leading global provider of Flight Simulation Training Devices, IFR training software as well as flight controls and related services. Find out more.

AeroInside Blog
Popular aircraft
Airbus A320
Boeing 737-800
Boeing 737-800 MAX
Popular airlines
American Airlines
United
Delta
Air Canada
Lufthansa
British Airways